sensor_id;sensor_type;location;lat;lon;timestamp;P1;durP1;ratioP1;P2;durP2;ratioP2
56297;SDS011;42208;6.376;-10.782;2023-06-14T00:00:53;15.43;;;5.15;;
56297;SDS011;42208;6.376;-10.782;2023-06-14T00:03:21;14.75;;;4.82;;
56297;SDS011;42208;6.376;-10.782;2023-06-14T00:05:50;24.42;;;5.15;;
56297;SDS011;42208;6.376;-10.782;2023-06-14T00:08:18;16.90;;;4.82;;
56297;SDS011;42208;6.376;-10.782;2023-06-14T00:10:47;18.60;;;5.53;;
56297;SDS011;42208;6.376;-10.782;2023-06-14T00:13:15;14.27;;;5.05;;
56297;SDS011;42208;6.376;-10.782;2023-06-14T00:15:43;19.02;;;4.53;;
56297;SDS011;42208;6.376;-10.782;2023-06-14T00:18:12;17.55;;;5.10;;
56297;SDS011;42208;6.376;-10.782;2023-06-14T00:20:41;13.55;;;3.90;;
56297;SDS011;42208;6.376;-10.782;2023-06-14T00:23:09;10.93;;;4.07;;
56297;SDS011;42208;6.376;-10.782;2023-06-14T00:25:38;21.85;;;5.45;;
56297;SDS011;42208;6.376;-10.782;2023-06-14T00:28:06;10.85;;;4.70;;
56297;SDS011;42208;6.376;-10.782;2023-06-14T00:30:35;16.75;;;4.65;;
56297;SDS011;42208;6.376;-10.782;2023-06-14T00:33:03;19.15;;;4.90;;
56297;SDS011;42208;6.376;-10.782;2023-06-14T00:35:32;12.52;;;3.95;;
56297;SDS011;42208;6.376;-10.782;2023-06-14T00:38:02;17.20;;;4.10;;
56297;SDS011;42208;6.376;-10.782;2023-06-14T00:40:30;14.00;;;4.97;;
56297;SDS011;42208;6.376;-10.782;2023-06-14T00:42:59;15.23;;;5.10;;
56297;SDS011;42208;6.376;-10.782;2023-06-14T00:45:28;17.90;;;5.10;;
56297;SDS011;42208;6.376;-10.782;2023-06-14T00:47:56;22.65;;;5.00;;
56297;SDS011;42208;6.376;-10.782;2023-06-14T00:50:25;20.67;;;5.22;;
56297;SDS011;42208;6.376;-10.782;2023-06-14T00:52:54;24.50;;;5.28;;
56297;SDS011;42208;6.376;-10.782;2023-06-14T00:55:23;19.42;;;5.45;;
56297;SDS011;42208;6.376;-10.782;2023-06-14T00:57:55;17.45;;;5.72;;
56297;SDS011;42208;6.376;-10.782;2023-06-14T01:00:24;17.33;;;5.75;;
56297;SDS011;42208;6.376;-10.782;2023-06-14T01:02:54;23.02;;;5.60;;
56297;SDS011;42208;6.376;-10.782;2023-06-14T01:05:22;20.25;;;6.72;;
56297;SDS011;42208;6.376;-10.782;2023-06-14T01:13:33;22.83;;;7.28;;
56297;SDS011;42208;6.376;-10.782;2023-06-14T01:16:03;23.03;;;6.23;;
56297;SDS011;42208;6.376;-10.782;2023-06-14T01:18:34;24.77;;;7.13;;
56297;SDS011;42208;6.376;-10.782;2023-06-14T01:21:03;18.50;;;6.00;;
56297;SDS011;42208;6.376;-10.782;2023-06-14T01:23:32;16.98;;;5.28;;
56297;SDS011;42208;6.376;-10.782;2023-06-14T01:26:01;17.25;;;6.00;;
56297;SDS011;42208;6.376;-10.782;2023-06-14T01:28:30;20.23;;;5.82;;
56297;SDS011;42208;6.376;-10.782;2023-06-14T01:31:01;19.33;;;5.85;;
56297;SDS011;42208;6.376;-10.782;2023-06-14T01:33:32;20.15;;;5.60;;
56297;SDS011;42208;6.376;-10.782;2023-06-14T01:36:03;15.25;;;5.55;;
56297;SDS011;42208;6.376;-10.782;2023-06-14T01:38:35;14.20;;;5.90;;
56297;SDS011;42208;6.376;-10.782;2023-06-14T01:41:04;19.98;;;6.90;;
56297;SDS011;42208;6.376;-10.782;2023-06-14T01:43:34;22.40;;;5.90;;
56297;SDS011;42208;6.376;-10.782;2023-06-14T01:46:04;16.90;;;5.57;;
56297;SDS011;42208;6.376;-10.782;2023-06-14T01:48:34;17.23;;;6.63;;
56297;SDS011;42208;6.376;-10.782;2023-06-14T01:51:03;21.13;;;6.40;;
56297;SDS011;42208;6.376;-10.782;2023-06-14T01:53:31;26.95;;;7.30;;
56297;SDS011;42208;6.376;-10.782;2023-06-14T01:56:00;21.27;;;6.65;;
56297;SDS011;42208;6.376;-10.782;2023-06-14T01:58:30;21.00;;;6.05;;
56297;SDS011;42208;6.376;-10.782;2023-06-14T02:00:58;24.75;;;6.47;;
56297;SDS011;42208;6.376;-10.782;2023-06-14T02:03:27;19.50;;;6.10;;
56297;SDS011;42208;6.376;-10.782;2023-06-14T02:05:55;16.83;;;5.80;;
56297;SDS011;42208;6.376;-10.782;2023-06-14T02:08:24;22.67;;;6.60;;
56297;SDS011;42208;6.376;-10.782;2023-06-14T02:10:52;23.40;;;6.35;;
56297;SDS011;42208;6.376;-10.782;2023-06-14T02:13:21;19.27;;;5.82;;
56297;SDS011;42208;6.376;-10.782;2023-06-14T02:15:50;17.08;;;6.95;;
56297;SDS011;42208;6.376;-10.782;2023-06-14T02:18:18;17.33;;;6.97;;
56297;SDS011;42208;6.376;-10.782;2023-06-14T02:20:47;20.10;;;5.88;;
56297;SDS011;42208;6.376;-10.782;2023-06-14T02:23:16;21.30;;;5.22;;
56297;SDS011;42208;6.376;-10.782;2023-06-14T02:25:45;15.55;;;4.90;;
56297;SDS011;42208;6.376;-10.782;2023-06-14T02:28:13;18.67;;;5.40;;
56297;SDS011;42208;6.376;-10.782;2023-06-14T02:30:41;16.83;;;5.45;;
56297;SDS011;42208;6.376;-10.782;2023-06-14T02:33:10;16.13;;;4.97;;
56297;SDS011;42208;6.376;-10.782;2023-06-14T02:35:39;15.30;;;5.18;;
56297;SDS011;42208;6.376;-10.782;2023-06-14T02:38:08;18.42;;;5.28;;
56297;SDS011;42208;6.376;-10.782;2023-06-14T02:40:36;12.63;;;4.70;;
56297;SDS011;42208;6.376;-10.782;2023-06-14T02:43:05;15.18;;;5.32;;
56297;SDS011;42208;6.376;-10.782;2023-06-14T02:45:33;12.55;;;5.18;;
56297;SDS011;42208;6.376;-10.782;2023-06-14T02:48:01;18.27;;;5.80;;
56297;SDS011;42208;6.376;-10.782;2023-06-14T02:50:30;19.50;;;6.35;;
56297;SDS011;42208;6.376;-10.782;2023-06-14T02:52:59;18.17;;;7.05;;
56297;SDS011;42208;6.376;-10.782;2023-06-14T02:55:27;17.42;;;7.38;;
56297;SDS011;42208;6.376;-10.782;2023-06-14T02:57:56;15.38;;;6.82;;
56297;SDS011;42208;6.376;-10.782;2023-06-14T03:00:25;15.50;;;5.80;;
56297;SDS011;42208;6.376;-10.782;2023-06-14T03:02:54;15.02;;;4.75;;
56297;SDS011;42208;6.376;-10.782;2023-06-14T03:05:23;18.38;;;4.90;;
56297;SDS011;42208;6.376;-10.782;2023-06-14T03:07:54;19.50;;;4.87;;
56297;SDS011;42208;6.376;-10.782;2023-06-14T03:10:22;15.48;;;4.82;;
56297;SDS011;42208;6.376;-10.782;2023-06-14T03:12:51;19.42;;;5.22;;
56297;SDS011;42208;6.376;-10.782;2023-06-14T03:15:21;26.05;;;5.50;;
56297;SDS011;42208;6.376;-10.782;2023-06-14T03:17:50;17.08;;;4.05;;
56297;SDS011;42208;6.376;-10.782;2023-06-14T03:20:18;14.07;;;4.72;;
56297;SDS011;42208;6.376;-10.782;2023-06-14T03:22:47;16.38;;;5.10;;
56297;SDS011;42208;6.376;-10.782;2023-06-14T03:25:15;16.75;;;4.28;;
56297;SDS011;42208;6.376;-10.782;2023-06-14T03:27:46;14.40;;;4.90;;
56297;SDS011;42208;6.376;-10.782;2023-06-14T03:30:15;19.55;;;5.00;;
56297;SDS011;42208;6.376;-10.782;2023-06-14T03:32:47;14.23;;;4.38;;
56297;SDS011;42208;6.376;-10.782;2023-06-14T03:35:16;14.32;;;5.10;;
56297;SDS011;42208;6.376;-10.782;2023-06-14T03:37:47;16.88;;;5.22;;
56297;SDS011;42208;6.376;-10.782;2023-06-14T03:40:17;19.73;;;5.72;;
56297;SDS011;42208;6.376;-10.782;2023-06-14T03:42:49;13.55;;;5.38;;
56297;SDS011;42208;6.376;-10.782;2023-06-14T03:45:18;19.98;;;5.70;;
56297;SDS011;42208;6.376;-10.782;2023-06-14T03:47:47;21.67;;;6.32;;
56297;SDS011;42208;6.376;-10.782;2023-06-14T03:50:16;32.70;;;13.18;;
56297;SDS011;42208;6.376;-10.782;2023-06-14T03:52:47;24.85;;;7.50;;
56297;SDS011;42208;6.376;-10.782;2023-06-14T03:55:19;15.07;;;5.93;;
56297;SDS011;42208;6.376;-10.782;2023-06-14T03:58:07;15.55;;;5.72;;
56297;SDS011;42208;6.376;-10.782;2023-06-14T04:00:36;10.75;;;4.88;;
56297;SDS011;42208;6.376;-10.782;2023-06-14T04:03:05;16.23;;;5.38;;
56297;SDS011;42208;6.376;-10.782;2023-06-14T04:05:35;12.88;;;5.15;;
56297;SDS011;42208;6.376;-10.782;2023-06-14T04:08:03;24.08;;;5.82;;
56297;SDS011;42208;6.376;-10.782;2023-06-14T04:10:32;16.58;;;5.13;;
56297;SDS011;42208;6.376;-10.782;2023-06-14T04:13:00;18.35;;;5.65;;
56297;SDS011;42208;6.376;-10.782;2023-06-14T04:15:29;15.80;;;5.40;;
56297;SDS011;42208;6.376;-10.782;2023-06-14T04:17:59;15.57;;;5.70;;
56297;SDS011;42208;6.376;-10.782;2023-06-14T04:20:28;15.02;;;6.28;;
56297;SDS011;42208;6.376;-10.782;2023-06-14T04:22:56;22.52;;;7.40;;
56297;SDS011;42208;6.376;-10.782;2023-06-14T04:25:24;20.30;;;6.97;;
56297;SDS011;42208;6.376;-10.782;2023-06-14T04:27:55;20.50;;;7.10;;
56297;SDS011;42208;6.376;-10.782;2023-06-14T04:30:23;18.75;;;5.68;;
56297;SDS011;42208;6.376;-10.782;2023-06-14T04:32:51;15.98;;;5.78;;
56297;SDS011;42208;6.376;-10.782;2023-06-14T04:35:20;17.75;;;5.63;;
56297;SDS011;42208;6.376;-10.782;2023-06-14T04:37:49;21.65;;;6.90;;
56297;SDS011;42208;6.376;-10.782;2023-06-14T04:40:18;32.40;;;11.35;;
56297;SDS011;42208;6.376;-10.782;2023-06-14T04:42:47;36.03;;;15.32;;
56297;SDS011;42208;6.376;-10.782;2023-06-14T04:45:17;38.75;;;16.23;;
56297;SDS011;42208;6.376;-10.782;2023-06-14T04:47:45;39.65;;;18.17;;
56297;SDS011;42208;6.376;-10.782;2023-06-14T04:50:14;35.85;;;17.92;;
56297;SDS011;42208;6.376;-10.782;2023-06-14T04:52:42;38.88;;;17.75;;
56297;SDS011;42208;6.376;-10.782;2023-06-14T04:55:11;36.10;;;16.77;;
56297;SDS011;42208;6.376;-10.782;2023-06-14T04:57:39;32.25;;;14.52;;
56297;SDS011;42208;6.376;-10.782;2023-06-14T05:00:09;30.20;;;12.38;;
56297;SDS011;42208;6.376;-10.782;2023-06-14T05:02:38;26.58;;;10.45;;
56297;SDS011;42208;6.376;-10.782;2023-06-14T05:05:06;25.73;;;9.68;;
56297;SDS011;42208;6.376;-10.782;2023-06-14T05:07:35;20.63;;;7.63;;
56297;SDS011;42208;6.376;-10.782;2023-06-14T05:10:07;23.25;;;6.80;;
56297;SDS011;42208;6.376;-10.782;2023-06-14T05:12:36;28.33;;;9.00;;
56297;SDS011;42208;6.376;-10.782;2023-06-14T05:15:06;20.75;;;6.70;;
56297;SDS011;42208;6.376;-10.782;2023-06-14T05:17:34;19.73;;;8.13;;
56297;SDS011;42208;6.376;-10.782;2023-06-14T05:20:03;30.00;;;7.20;;
56297;SDS011;42208;6.376;-10.782;2023-06-14T05:22:32;14.57;;;6.35;;
56297;SDS011;42208;6.376;-10.782;2023-06-14T05:25:00;18.25;;;6.35;;
56297;SDS011;42208;6.376;-10.782;2023-06-14T05:27:29;18.95;;;6.85;;
56297;SDS011;42208;6.376;-10.782;2023-06-14T05:29:57;34.85;;;14.18;;
56297;SDS011;42208;6.376;-10.782;2023-06-14T05:32:27;40.47;;;14.57;;
56297;SDS011;42208;6.376;-10.782;2023-06-14T05:34:55;66.20;;;32.25;;
56297;SDS011;42208;6.376;-10.782;2023-06-14T05:37:24;75.45;;;32.83;;
56297;SDS011;42208;6.376;-10.782;2023-06-14T05:39:52;60.90;;;28.95;;
56297;SDS011;42208;6.376;-10.782;2023-06-14T05:42:21;54.80;;;28.05;;
56297;SDS011;42208;6.376;-10.782;2023-06-14T05:44:49;58.63;;;26.85;;
56297;SDS011;42208;6.376;-10.782;2023-06-14T05:47:18;42.63;;;20.00;;
56297;SDS011;42208;6.376;-10.782;2023-06-14T05:49:47;50.83;;;19.08;;
56297;SDS011;42208;6.376;-10.782;2023-06-14T05:52:15;36.00;;;16.10;;
56297;SDS011;42208;6.376;-10.782;2023-06-14T05:54:43;29.58;;;13.13;;
56297;SDS011;42208;6.376;-10.782;2023-06-14T05:57:12;33.40;;;13.13;;
56297;SDS011;42208;6.376;-10.782;2023-06-14T05:59:40;36.55;;;14.55;;
56297;SDS011;42208;6.376;-10.782;2023-06-14T06:02:08;37.35;;;15.73;;
56297;SDS011;42208;6.376;-10.782;2023-06-14T06:04:37;36.92;;;13.90;;
56297;SDS011;42208;6.376;-10.782;2023-06-14T06:07:05;37.40;;;13.38;;
56297;SDS011;42208;6.376;-10.782;2023-06-14T06:09:34;28.02;;;12.07;;
56297;SDS011;42208;6.376;-10.782;2023-06-14T06:12:05;26.08;;;10.80;;
56297;SDS011;42208;6.376;-10.782;2023-06-14T06:14:34;23.70;;;8.73;;
56297;SDS011;42208;6.376;-10.782;2023-06-14T06:17:02;30.25;;;9.00;;
56297;SDS011;42208;6.376;-10.782;2023-06-14T06:19:31;30.52;;;7.60;;
56297;SDS011;42208;6.376;-10.782;2023-06-14T06:21:59;21.05;;;7.38;;
56297;SDS011;42208;6.376;-10.782;2023-06-14T06:24:27;35.35;;;7.35;;
56297;SDS011;42208;6.376;-10.782;2023-06-14T06:26:56;24.23;;;7.82;;
56297;SDS011;42208;6.376;-10.782;2023-06-14T06:29:24;23.13;;;8.35;;
56297;SDS011;42208;6.376;-10.782;2023-06-14T06:31:53;27.58;;;8.07;;
56297;SDS011;42208;6.376;-10.782;2023-06-14T06:34:21;20.50;;;8.02;;
56297;SDS011;42208;6.376;-10.782;2023-06-14T06:36:50;32.13;;;8.30;;
56297;SDS011;42208;6.376;-10.782;2023-06-14T06:39:18;35.75;;;8.75;;
56297;SDS011;42208;6.376;-10.782;2023-06-14T06:41:47;35.83;;;10.05;;
56297;SDS011;42208;6.376;-10.782;2023-06-14T06:44:26;36.85;;;9.07;;
56297;SDS011;42208;6.376;-10.782;2023-06-14T06:46:55;24.83;;;8.23;;
56297;SDS011;42208;6.376;-10.782;2023-06-14T06:49:25;30.20;;;9.25;;
56297;SDS011;42208;6.376;-10.782;2023-06-14T06:52:03;32.65;;;9.10;;
56297;SDS011;42208;6.376;-10.782;2023-06-14T06:54:33;25.60;;;9.02;;
56297;SDS011;42208;6.376;-10.782;2023-06-14T06:57:02;33.85;;;9.70;;
56297;SDS011;42208;6.376;-10.782;2023-06-14T06:59:30;26.60;;;10.10;;
56297;SDS011;42208;6.376;-10.782;2023-06-14T07:01:59;35.58;;;10.55;;
56297;SDS011;42208;6.376;-10.782;2023-06-14T07:04:28;24.00;;;10.13;;
56297;SDS011;42208;6.376;-10.782;2023-06-14T07:06:56;35.97;;;10.23;;
56297;SDS011;42208;6.376;-10.782;2023-06-14T07:09:24;25.80;;;9.40;;
56297;SDS011;42208;6.376;-10.782;2023-06-14T07:11:53;30.55;;;10.32;;
56297;SDS011;42208;6.376;-10.782;2023-06-14T07:14:21;27.88;;;9.20;;
56297;SDS011;42208;6.376;-10.782;2023-06-14T07:16:50;41.15;;;13.65;;
56297;SDS011;42208;6.376;-10.782;2023-06-14T07:19:18;39.58;;;17.15;;
56297;SDS011;42208;6.376;-10.782;2023-06-14T07:21:47;38.83;;;17.95;;
56297;SDS011;42208;6.376;-10.782;2023-06-14T07:24:17;35.53;;;17.05;;
56297;SDS011;42208;6.376;-10.782;2023-06-14T07:26:47;39.60;;;17.40;;
56297;SDS011;42208;6.376;-10.782;2023-06-14T07:29:15;45.63;;;18.42;;
56297;SDS011;42208;6.376;-10.782;2023-06-14T07:31:44;38.58;;;18.55;;
56297;SDS011;42208;6.376;-10.782;2023-06-14T07:34:13;40.38;;;18.50;;
56297;SDS011;42208;6.376;-10.782;2023-06-14T07:36:41;49.85;;;20.90;;
56297;SDS011;42208;6.376;-10.782;2023-06-14T07:39:10;37.47;;;18.42;;
56297;SDS011;42208;6.376;-10.782;2023-06-14T07:41:38;42.38;;;19.27;;
56297;SDS011;42208;6.376;-10.782;2023-06-14T07:44:07;35.78;;;17.25;;
56297;SDS011;42208;6.376;-10.782;2023-06-14T07:46:35;36.55;;;16.02;;
56297;SDS011;42208;6.376;-10.782;2023-06-14T07:49:04;39.88;;;15.65;;
56297;SDS011;42208;6.376;-10.782;2023-06-14T07:51:33;40.30;;;17.33;;
56297;SDS011;42208;6.376;-10.782;2023-06-14T07:54:03;53.85;;;18.65;;
56297;SDS011;42208;6.376;-10.782;2023-06-14T07:56:31;53.83;;;20.35;;
56297;SDS011;42208;6.376;-10.782;2023-06-14T07:59:01;42.03;;;14.65;;
56297;SDS011;42208;6.376;-10.782;2023-06-14T08:01:29;42.33;;;14.80;;
56297;SDS011;42208;6.376;-10.782;2023-06-14T08:03:58;31.45;;;12.25;;
56297;SDS011;42208;6.376;-10.782;2023-06-14T08:06:27;32.38;;;12.77;;
56297;SDS011;42208;6.376;-10.782;2023-06-14T08:08:56;27.67;;;11.27;;
56297;SDS011;42208;6.376;-10.782;2023-06-14T08:11:24;33.50;;;12.25;;
56297;SDS011;42208;6.376;-10.782;2023-06-14T08:13:53;28.52;;;12.15;;
56297;SDS011;42208;6.376;-10.782;2023-06-14T08:16:22;31.17;;;10.75;;
56297;SDS011;42208;6.376;-10.782;2023-06-14T08:18:52;33.80;;;11.45;;
56297;SDS011;42208;6.376;-10.782;2023-06-14T08:21:20;29.50;;;11.48;;
56297;SDS011;42208;6.376;-10.782;2023-06-14T08:23:49;34.65;;;11.75;;
56297;SDS011;42208;6.376;-10.782;2023-06-14T08:28:49;39.75;;;12.65;;
56297;SDS011;42208;6.376;-10.782;2023-06-14T08:31:18;36.65;;;14.48;;
56297;SDS011;42208;6.376;-10.782;2023-06-14T08:33:48;41.83;;;14.23;;
56297;SDS011;42208;6.376;-10.782;2023-06-14T08:36:26;41.13;;;12.32;;
56297;SDS011;42208;6.376;-10.782;2023-06-14T08:38:55;46.78;;;14.48;;
56297;SDS011;42208;6.376;-10.782;2023-06-14T08:41:24;37.00;;;13.70;;
56297;SDS011;42208;6.376;-10.782;2023-06-14T08:43:54;28.92;;;13.18;;
56297;SDS011;42208;6.376;-10.782;2023-06-14T08:46:23;39.38;;;14.02;;
56297;SDS011;42208;6.376;-10.782;2023-06-14T08:48:54;31.10;;;13.60;;
56297;SDS011;42208;6.376;-10.782;2023-06-14T08:51:24;37.20;;;13.73;;
56297;SDS011;42208;6.376;-10.782;2023-06-14T08:53:54;28.35;;;8.88;;
56297;SDS011;42208;6.376;-10.782;2023-06-14T08:56:30;22.67;;;7.72;;
56297;SDS011;42208;6.376;-10.782;2023-06-14T08:58:59;25.00;;;6.75;;
56297;SDS011;42208;6.376;-10.782;2023-06-14T09:01:28;20.88;;;7.57;;
56297;SDS011;42208;6.376;-10.782;2023-06-14T09:04:01;27.85;;;7.90;;
56297;SDS011;42208;6.376;-10.782;2023-06-14T09:06:29;26.08;;;8.70;;
56297;SDS011;42208;6.376;-10.782;2023-06-14T09:08:58;19.40;;;7.47;;
56297;SDS011;42208;6.376;-10.782;2023-06-14T09:11:27;26.63;;;7.65;;
56297;SDS011;42208;6.376;-10.782;2023-06-14T09:13:55;22.52;;;7.80;;
56297;SDS011;42208;6.376;-10.782;2023-06-14T09:16:24;35.25;;;7.45;;
56297;SDS011;42208;6.376;-10.782;2023-06-14T09:18:53;15.82;;;6.50;;
56297;SDS011;42208;6.376;-10.782;2023-06-14T09:21:25;23.70;;;9.10;;
56297;SDS011;42208;6.376;-10.782;2023-06-14T09:23:58;25.48;;;8.80;;
56297;SDS011;42208;6.376;-10.782;2023-06-14T09:26:29;19.52;;;7.80;;
56297;SDS011;42208;6.376;-10.782;2023-06-14T09:28:57;22.02;;;6.50;;
56297;SDS011;42208;6.376;-10.782;2023-06-14T09:31:34;21.75;;;6.80;;
56297;SDS011;42208;6.376;-10.782;2023-06-14T09:34:03;25.08;;;6.80;;
56297;SDS011;42208;6.376;-10.782;2023-06-14T09:36:32;25.08;;;6.25;;
56297;SDS011;42208;6.376;-10.782;2023-06-14T09:39:02;22.67;;;5.97;;
56297;SDS011;42208;6.376;-10.782;2023-06-14T09:44:00;24.35;;;7.57;;
56297;SDS011;42208;6.376;-10.782;2023-06-14T09:46:34;24.08;;;7.25;;
56297;SDS011;42208;6.376;-10.782;2023-06-14T09:49:04;29.48;;;6.47;;
56297;SDS011;42208;6.376;-10.782;2023-06-14T09:51:33;25.65;;;7.47;;
56297;SDS011;42208;6.376;-10.782;2023-06-14T09:54:04;22.60;;;6.82;;
56297;SDS011;42208;6.376;-10.782;2023-06-14T09:56:36;25.00;;;5.95;;
56297;SDS011;42208;6.376;-10.782;2023-06-14T09:59:09;26.58;;;5.25;;
56297;SDS011;42208;6.376;-10.782;2023-06-14T10:01:43;25.00;;;7.25;;
56297;SDS011;42208;6.376;-10.782;2023-06-14T10:04:13;28.80;;;6.28;;
56297;SDS011;42208;6.376;-10.782;2023-06-14T10:06:49;22.55;;;5.53;;
56297;SDS011;42208;6.376;-10.782;2023-06-14T10:09:20;24.20;;;6.50;;
56297;SDS011;42208;6.376;-10.782;2023-06-14T10:11:49;28.83;;;7.30;;
56297;SDS011;42208;6.376;-10.782;2023-06-14T10:14:18;27.70;;;10.18;;
56297;SDS011;42208;6.376;-10.782;2023-06-14T10:19:37;28.55;;;7.20;;
56297;SDS011;42208;6.376;-10.782;2023-06-14T10:22:17;33.42;;;7.70;;
56297;SDS011;42208;6.376;-10.782;2023-06-14T10:24:58;16.55;;;6.18;;
56297;SDS011;42208;6.376;-10.782;2023-06-14T10:27:27;37.55;;;8.43;;
56297;SDS011;42208;6.376;-10.782;2023-06-14T10:32:24;17.50;;;4.90;;
56297;SDS011;42208;6.376;-10.782;2023-06-14T10:34:54;22.35;;;7.03;;
56297;SDS011;42208;6.376;-10.782;2023-06-14T10:37:24;23.35;;;8.18;;
56297;SDS011;42208;6.376;-10.782;2023-06-14T10:39:53;28.23;;;7.35;;
56297;SDS011;42208;6.376;-10.782;2023-06-14T10:42:22;22.10;;;9.23;;
56297;SDS011;42208;6.376;-10.782;2023-06-14T10:44:59;30.45;;;7.80;;
56297;SDS011;42208;6.376;-10.782;2023-06-14T10:47:32;42.70;;;8.65;;
56297;SDS011;42208;6.376;-10.782;2023-06-14T10:50:06;30.88;;;7.45;;
56297;SDS011;42208;6.376;-10.782;2023-06-14T10:52:39;25.63;;;7.57;;
56297;SDS011;42208;6.376;-10.782;2023-06-14T10:55:19;18.10;;;6.13;;
56297;SDS011;42208;6.376;-10.782;2023-06-14T10:57:51;16.60;;;4.80;;
56297;SDS011;42208;6.376;-10.782;2023-06-14T11:00:22;27.95;;;6.55;;
56297;SDS011;42208;6.376;-10.782;2023-06-14T11:06:01;21.10;;;5.13;;
56297;SDS011;42208;6.376;-10.782;2023-06-14T11:08:56;26.58;;;5.50;;
56297;SDS011;42208;6.376;-10.782;2023-06-14T11:11:32;14.25;;;5.03;;
56297;SDS011;42208;6.376;-10.782;2023-06-14T11:14:01;28.50;;;5.63;;
56297;SDS011;42208;6.376;-10.782;2023-06-14T11:16:30;29.77;;;11.82;;
56297;SDS011;42208;6.376;-10.782;2023-06-14T11:19:00;34.17;;;10.52;;
56297;SDS011;42208;6.376;-10.782;2023-06-14T11:21:28;29.98;;;8.45;;
56297;SDS011;42208;6.376;-10.782;2023-06-14T11:24:00;38.20;;;12.40;;
56297;SDS011;42208;6.376;-10.782;2023-06-14T11:26:29;26.08;;;9.18;;
56297;SDS011;42208;6.376;-10.782;2023-06-14T11:28:59;19.15;;;7.45;;
56297;SDS011;42208;6.376;-10.782;2023-06-14T11:31:28;27.95;;;7.68;;
56297;SDS011;42208;6.376;-10.782;2023-06-14T11:33:58;39.30;;;16.35;;
56297;SDS011;42208;6.376;-10.782;2023-06-14T11:36:28;20.52;;;7.55;;
56297;SDS011;42208;6.376;-10.782;2023-06-14T11:38:58;24.42;;;6.22;;
56297;SDS011;42208;6.376;-10.782;2023-06-14T11:41:43;26.05;;;9.73;;
56297;SDS011;42208;6.376;-10.782;2023-06-14T11:44:16;24.55;;;6.85;;
56297;SDS011;42208;6.376;-10.782;2023-06-14T11:46:44;25.85;;;7.50;;
56297;SDS011;42208;6.376;-10.782;2023-06-14T11:49:16;17.35;;;6.68;;
56297;SDS011;42208;6.376;-10.782;2023-06-14T11:51:45;23.75;;;6.68;;
56297;SDS011;42208;6.376;-10.782;2023-06-14T11:54:15;17.85;;;6.00;;
56297;SDS011;42208;6.376;-10.782;2023-06-14T11:56:43;18.05;;;6.72;;
56297;SDS011;42208;6.376;-10.782;2023-06-14T11:59:13;18.40;;;6.95;;
56297;SDS011;42208;6.376;-10.782;2023-06-14T12:01:42;17.85;;;5.35;;
56297;SDS011;42208;6.376;-10.782;2023-06-14T12:04:13;20.42;;;6.05;;
56297;SDS011;42208;6.376;-10.782;2023-06-14T12:06:44;21.70;;;6.57;;
56297;SDS011;42208;6.376;-10.782;2023-06-14T12:09:12;17.48;;;7.25;;
56297;SDS011;42208;6.376;-10.782;2023-06-14T12:11:43;22.33;;;6.03;;
56297;SDS011;42208;6.376;-10.782;2023-06-14T12:14:12;22.20;;;7.82;;
56297;SDS011;42208;6.376;-10.782;2023-06-14T12:16:41;22.30;;;8.38;;
56297;SDS011;42208;6.376;-10.782;2023-06-14T12:19:13;33.83;;;12.23;;
56297;SDS011;42208;6.376;-10.782;2023-06-14T12:21:45;29.35;;;8.68;;
56297;SDS011;42208;6.376;-10.782;2023-06-14T12:24:15;19.00;;;6.28;;
56297;SDS011;42208;6.376;-10.782;2023-06-14T12:26:44;25.65;;;6.88;;
56297;SDS011;42208;6.376;-10.782;2023-06-14T12:29:12;28.88;;;8.20;;
56297;SDS011;42208;6.376;-10.782;2023-06-14T12:31:41;23.58;;;6.10;;
56297;SDS011;42208;6.376;-10.782;2023-06-14T12:34:10;17.13;;;5.38;;
56297;SDS011;42208;6.376;-10.782;2023-06-14T12:36:38;35.72;;;7.13;;
56297;SDS011;42208;6.376;-10.782;2023-06-14T12:39:07;17.63;;;5.55;;
56297;SDS011;42208;6.376;-10.782;2023-06-14T12:41:36;16.00;;;5.78;;
56297;SDS011;42208;6.376;-10.782;2023-06-14T12:44:04;20.90;;;4.95;;
56297;SDS011;42208;6.376;-10.782;2023-06-14T12:46:34;19.88;;;5.47;;
56297;SDS011;42208;6.376;-10.782;2023-06-14T12:49:02;25.05;;;5.07;;
56297;SDS011;42208;6.376;-10.782;2023-06-14T12:51:33;15.93;;;4.80;;
56297;SDS011;42208;6.376;-10.782;2023-06-14T12:54:02;31.35;;;6.32;;
56297;SDS011;42208;6.376;-10.782;2023-06-14T12:56:31;40.00;;;7.95;;
56297;SDS011;42208;6.376;-10.782;2023-06-14T12:59:00;33.17;;;7.22;;
56297;SDS011;42208;6.376;-10.782;2023-06-14T13:01:29;27.15;;;7.50;;
56297;SDS011;42208;6.376;-10.782;2023-06-14T13:03:57;29.38;;;7.88;;
56297;SDS011;42208;6.376;-10.782;2023-06-14T13:06:26;24.35;;;5.68;;
56297;SDS011;42208;6.376;-10.782;2023-06-14T13:08:54;20.55;;;5.47;;
56297;SDS011;42208;6.376;-10.782;2023-06-14T13:11:23;17.65;;;5.13;;
56297;SDS011;42208;6.376;-10.782;2023-06-14T13:13:51;13.05;;;5.13;;
56297;SDS011;42208;6.376;-10.782;2023-06-14T13:16:20;26.67;;;9.38;;
56297;SDS011;42208;6.376;-10.782;2023-06-14T13:18:48;23.98;;;11.73;;
56297;SDS011;42208;6.376;-10.782;2023-06-14T13:21:17;25.92;;;13.10;;
56297;SDS011;42208;6.376;-10.782;2023-06-14T13:23:45;35.35;;;14.60;;
56297;SDS011;42208;6.376;-10.782;2023-06-14T13:26:14;37.60;;;17.00;;
56297;SDS011;42208;6.376;-10.782;2023-06-14T13:28:42;124.20;;;65.78;;
56297;SDS011;42208;6.376;-10.782;2023-06-14T13:31:11;90.57;;;54.72;;
56297;SDS011;42208;6.376;-10.782;2023-06-14T13:33:39;47.08;;;23.95;;
56297;SDS011;42208;6.376;-10.782;2023-06-14T13:36:09;28.42;;;12.70;;
56297;SDS011;42208;6.376;-10.782;2023-06-14T13:38:38;25.17;;;11.30;;
56297;SDS011;42208;6.376;-10.782;2023-06-14T13:41:07;31.00;;;9.55;;
56297;SDS011;42208;6.376;-10.782;2023-06-14T13:43:35;33.03;;;12.18;;
56297;SDS011;42208;6.376;-10.782;2023-06-14T13:46:04;26.33;;;7.75;;
56297;SDS011;42208;6.376;-10.782;2023-06-14T13:48:33;37.83;;;10.82;;
56297;SDS011;42208;6.376;-10.782;2023-06-14T13:51:01;28.10;;;10.27;;
56297;SDS011;42208;6.376;-10.782;2023-06-14T13:53:30;46.78;;;12.05;;
56297;SDS011;42208;6.376;-10.782;2023-06-14T13:55:59;28.20;;;10.85;;
56297;SDS011;42208;6.376;-10.782;2023-06-14T13:58:27;37.20;;;8.70;;
56297;SDS011;42208;6.376;-10.782;2023-06-14T14:01:00;35.38;;;9.15;;
56297;SDS011;42208;6.376;-10.782;2023-06-14T14:03:28;34.58;;;9.40;;
56297;SDS011;42208;6.376;-10.782;2023-06-14T14:06:00;26.63;;;6.85;;
56297;SDS011;42208;6.376;-10.782;2023-06-14T14:08:29;26.83;;;6.20;;
56297;SDS011;42208;6.376;-10.782;2023-06-14T14:10:58;26.90;;;6.82;;
56297;SDS011;42208;6.376;-10.782;2023-06-14T14:13:27;28.63;;;6.25;;
56297;SDS011;42208;6.376;-10.782;2023-06-14T14:15:55;39.00;;;8.13;;
56297;SDS011;42208;6.376;-10.782;2023-06-14T14:18:24;32.20;;;6.05;;
56297;SDS011;42208;6.376;-10.782;2023-06-14T14:20:55;22.77;;;6.25;;
56297;SDS011;42208;6.376;-10.782;2023-06-14T14:23:24;29.25;;;6.22;;
56297;SDS011;42208;6.376;-10.782;2023-06-14T14:25:52;16.75;;;6.22;;
56297;SDS011;42208;6.376;-10.782;2023-06-14T14:28:21;28.48;;;5.50;;
56297;SDS011;42208;6.376;-10.782;2023-06-14T14:30:50;14.57;;;3.88;;
56297;SDS011;42208;6.376;-10.782;2023-06-14T14:33:18;24.17;;;5.43;;
56297;SDS011;42208;6.376;-10.782;2023-06-14T14:35:47;17.50;;;4.78;;
56297;SDS011;42208;6.376;-10.782;2023-06-14T14:38:15;18.27;;;6.28;;
56297;SDS011;42208;6.376;-10.782;2023-06-14T14:40:44;32.15;;;7.22;;
56297;SDS011;42208;6.376;-10.782;2023-06-14T14:43:13;23.25;;;5.68;;
56297;SDS011;42208;6.376;-10.782;2023-06-14T14:45:42;25.83;;;5.65;;
56297;SDS011;42208;6.376;-10.782;2023-06-14T14:48:10;24.00;;;5.70;;
56297;SDS011;42208;6.376;-10.782;2023-06-14T14:50:41;21.58;;;5.05;;